sensor_id;sensor_type;location;lat;lon;timestamp;P1;durP1;ratioP1;P2;durP2;ratioP2
35126;SDS011;21300;52.006;5.798;2022-07-23T00:01:22;4.10;;;1.60;;
35126;SDS011;21300;52.006;5.798;2022-07-23T00:03:48;2.10;;;1.55;;
35126;SDS011;21300;52.006;5.798;2022-07-23T00:06:13;3.67;;;1.70;;
35126;SDS011;21300;52.006;5.798;2022-07-23T00:08:39;3.85;;;1.65;;
35126;SDS011;21300;52.006;5.798;2022-07-23T00:11:05;3.75;;;1.77;;
35126;SDS011;21300;52.006;5.798;2022-07-23T00:13:31;5.47;;;1.73;;
35126;SDS011;21300;52.006;5.798;2022-07-23T00:15:59;2.15;;;1.30;;
35126;SDS011;21300;52.006;5.798;2022-07-23T00:18:24;2.03;;;1.35;;
35126;SDS011;21300;52.006;5.798;2022-07-23T00:20:50;4.25;;;1.58;;
35126;SDS011;21300;52.006;5.798;2022-07-23T00:23:16;5.05;;;1.67;;
35126;SDS011;21300;52.006;5.798;2022-07-23T00:25:42;4.38;;;1.80;;
35126;SDS011;21300;52.006;5.798;2022-07-23T00:28:14;4.95;;;1.92;;
35126;SDS011;21300;52.006;5.798;2022-07-23T00:30:39;2.42;;;1.30;;
35126;SDS011;21300;52.006;5.798;2022-07-23T00:33:06;3.55;;;1.65;;
35126;SDS011;21300;52.006;5.798;2022-07-23T00:35:33;2.85;;;1.70;;
35126;SDS011;21300;52.006;5.798;2022-07-23T00:38:02;3.10;;;1.90;;
35126;SDS011;21300;52.006;5.798;2022-07-23T00:40:29;7.55;;;2.00;;
35126;SDS011;21300;52.006;5.798;2022-07-23T00:42:57;2.97;;;1.40;;
35126;SDS011;21300;52.006;5.798;2022-07-23T00:45:24;2.58;;;1.55;;
35126;SDS011;21300;52.006;5.798;2022-07-23T00:47:50;1.83;;;1.50;;
35126;SDS011;21300;52.006;5.798;2022-07-23T00:50:16;2.65;;;1.50;;
35126;SDS011;21300;52.006;5.798;2022-07-23T00:52:41;5.28;;;1.55;;
35126;SDS011;21300;52.006;5.798;2022-07-23T00:55:08;2.47;;;1.50;;
35126;SDS011;21300;52.006;5.798;2022-07-23T00:57:35;5.88;;;1.70;;
35126;SDS011;21300;52.006;5.798;2022-07-23T01:00:02;2.08;;;1.50;;
35126;SDS011;21300;52.006;5.798;2022-07-23T01:02:30;5.20;;;1.50;;
35126;SDS011;21300;52.006;5.798;2022-07-23T01:04:55;3.85;;;1.40;;
35126;SDS011;21300;52.006;5.798;2022-07-23T01:07:21;7.97;;;1.75;;
35126;SDS011;21300;52.006;5.798;2022-07-23T01:09:48;2.58;;;1.40;;
35126;SDS011;21300;52.006;5.798;2022-07-23T01:12:14;3.40;;;1.80;;
35126;SDS011;21300;52.006;5.798;2022-07-23T01:14:40;2.80;;;1.70;;
35126;SDS011;21300;52.006;5.798;2022-07-23T01:17:05;4.45;;;1.60;;
35126;SDS011;21300;52.006;5.798;2022-07-23T01:19:31;4.57;;;2.10;;
35126;SDS011;21300;52.006;5.798;2022-07-23T01:21:58;3.65;;;1.67;;
35126;SDS011;21300;52.006;5.798;2022-07-23T01:24:26;3.22;;;1.90;;
35126;SDS011;21300;52.006;5.798;2022-07-23T01:26:52;2.58;;;1.70;;
35126;SDS011;21300;52.006;5.798;2022-07-23T01:29:18;2.55;;;1.70;;
35126;SDS011;21300;52.006;5.798;2022-07-23T01:31:46;2.20;;;1.42;;
35126;SDS011;21300;52.006;5.798;2022-07-23T01:34:12;6.00;;;1.60;;
35126;SDS011;21300;52.006;5.798;2022-07-23T01:36:38;2.45;;;1.65;;
35126;SDS011;21300;52.006;5.798;2022-07-23T01:39:05;6.05;;;1.80;;
35126;SDS011;21300;52.006;5.798;2022-07-23T01:41:32;5.20;;;2.15;;
35126;SDS011;21300;52.006;5.798;2022-07-23T01:43:58;1.80;;;1.58;;
35126;SDS011;21300;52.006;5.798;2022-07-23T01:46:24;4.22;;;1.83;;
35126;SDS011;21300;52.006;5.798;2022-07-23T01:48:49;3.25;;;1.90;;
35126;SDS011;21300;52.006;5.798;2022-07-23T01:51:15;6.13;;;2.30;;
35126;SDS011;21300;52.006;5.798;2022-07-23T01:53:41;5.88;;;2.42;;
35126;SDS011;21300;52.006;5.798;2022-07-23T01:56:06;3.95;;;2.20;;
35126;SDS011;21300;52.006;5.798;2022-07-23T01:58:32;3.72;;;2.00;;
35126;SDS011;21300;52.006;5.798;2022-07-23T02:00:58;2.78;;;2.10;;
35126;SDS011;21300;52.006;5.798;2022-07-23T02:03:24;3.00;;;1.90;;
35126;SDS011;21300;52.006;5.798;2022-07-23T02:05:50;3.65;;;2.00;;
35126;SDS011;21300;52.006;5.798;2022-07-23T02:08:16;2.45;;;1.88;;
35126;SDS011;21300;52.006;5.798;2022-07-23T02:10:42;2.95;;;2.20;;
35126;SDS011;21300;52.006;5.798;2022-07-23T02:13:08;4.95;;;2.33;;
35126;SDS011;21300;52.006;5.798;2022-07-23T02:15:33;2.45;;;1.73;;
35126;SDS011;21300;52.006;5.798;2022-07-23T02:17:59;3.78;;;2.00;;
35126;SDS011;21300;52.006;5.798;2022-07-23T02:20:25;2.72;;;1.88;;
35126;SDS011;21300;52.006;5.798;2022-07-23T02:22:50;2.38;;;1.77;;
35126;SDS011;21300;52.006;5.798;2022-07-23T02:25:16;5.72;;;1.98;;
35126;SDS011;21300;52.006;5.798;2022-07-23T02:27:42;3.47;;;1.90;;
35126;SDS011;21300;52.006;5.798;2022-07-23T02:30:08;2.63;;;1.85;;
35126;SDS011;21300;52.006;5.798;2022-07-23T02:32:34;3.42;;;1.98;;
35126;SDS011;21300;52.006;5.798;2022-07-23T02:35:00;2.90;;;1.95;;
35126;SDS011;21300;52.006;5.798;2022-07-23T02:37:26;2.63;;;2.17;;
35126;SDS011;21300;52.006;5.798;2022-07-23T02:39:52;2.83;;;2.15;;
35126;SDS011;21300;52.006;5.798;2022-07-23T02:42:17;1.92;;;1.60;;
35126;SDS011;21300;52.006;5.798;2022-07-23T02:44:43;3.97;;;1.95;;
35126;SDS011;21300;52.006;5.798;2022-07-23T02:47:09;4.57;;;2.42;;
35126;SDS011;21300;52.006;5.798;2022-07-23T02:49:34;3.08;;;2.13;;
35126;SDS011;21300;52.006;5.798;2022-07-23T02:52:01;2.03;;;1.83;;
35126;SDS011;21300;52.006;5.798;2022-07-23T02:54:27;2.85;;;1.92;;
35126;SDS011;21300;52.006;5.798;2022-07-23T02:56:55;2.95;;;1.80;;
35126;SDS011;21300;52.006;5.798;2022-07-23T02:59:21;2.17;;;1.90;;
35126;SDS011;21300;52.006;5.798;2022-07-23T03:01:50;3.58;;;1.95;;
35126;SDS011;21300;52.006;5.798;2022-07-23T03:04:15;3.25;;;2.03;;
35126;SDS011;21300;52.006;5.798;2022-07-23T03:06:41;4.30;;;2.00;;
35126;SDS011;21300;52.006;5.798;2022-07-23T03:09:06;4.22;;;1.88;;
35126;SDS011;21300;52.006;5.798;2022-07-23T03:11:32;2.47;;;1.90;;
35126;SDS011;21300;52.006;5.798;2022-07-23T03:13:57;2.17;;;1.60;;
35126;SDS011;21300;52.006;5.798;2022-07-23T03:16:23;2.22;;;1.63;;
35126;SDS011;21300;52.006;5.798;2022-07-23T03:18:49;3.05;;;1.77;;
35126;SDS011;21300;52.006;5.798;2022-07-23T03:21:14;2.00;;;1.80;;
35126;SDS011;21300;52.006;5.798;2022-07-23T03:23:40;2.88;;;1.90;;
35126;SDS011;21300;52.006;5.798;2022-07-23T03:26:06;4.35;;;1.70;;
35126;SDS011;21300;52.006;5.798;2022-07-23T03:28:31;2.75;;;1.80;;
35126;SDS011;21300;52.006;5.798;2022-07-23T03:30:57;1.92;;;1.55;;
35126;SDS011;21300;52.006;5.798;2022-07-23T03:33:23;4.90;;;1.98;;
35126;SDS011;21300;52.006;5.798;2022-07-23T03:35:49;3.80;;;2.17;;
35126;SDS011;21300;52.006;5.798;2022-07-23T03:38:14;2.80;;;1.90;;
35126;SDS011;21300;52.006;5.798;2022-07-23T03:40:40;2.67;;;2.10;;
35126;SDS011;21300;52.006;5.798;2022-07-23T03:43:06;2.35;;;2.05;;
35126;SDS011;21300;52.006;5.798;2022-07-23T03:45:35;4.22;;;1.80;;
35126;SDS011;21300;52.006;5.798;2022-07-23T03:48:01;3.78;;;2.20;;
35126;SDS011;21300;52.006;5.798;2022-07-23T03:50:26;4.13;;;1.90;;
35126;SDS011;21300;52.006;5.798;2022-07-23T03:52:52;4.32;;;1.92;;
35126;SDS011;21300;52.006;5.798;2022-07-23T03:55:19;3.30;;;1.92;;
35126;SDS011;21300;52.006;5.798;2022-07-23T03:57:44;2.72;;;1.90;;
35126;SDS011;21300;52.006;5.798;2022-07-23T04:00:10;2.42;;;1.95;;
35126;SDS011;21300;52.006;5.798;2022-07-23T04:02:38;3.20;;;2.00;;
35126;SDS011;21300;52.006;5.798;2022-07-23T04:05:04;3.03;;;1.70;;
35126;SDS011;21300;52.006;5.798;2022-07-23T04:07:30;2.92;;;1.42;;
35126;SDS011;21300;52.006;5.798;2022-07-23T04:09:56;1.67;;;1.40;;
35126;SDS011;21300;52.006;5.798;2022-07-23T04:12:21;2.38;;;1.38;;
35126;SDS011;21300;52.006;5.798;2022-07-23T04:14:47;2.05;;;1.40;;
35126;SDS011;21300;52.006;5.798;2022-07-23T04:17:19;3.22;;;1.60;;
35126;SDS011;21300;52.006;5.798;2022-07-23T04:19:47;2.42;;;1.45;;
35126;SDS011;21300;52.006;5.798;2022-07-23T04:22:13;3.10;;;1.60;;
35126;SDS011;21300;52.006;5.798;2022-07-23T04:24:38;4.35;;;1.60;;
35126;SDS011;21300;52.006;5.798;2022-07-23T04:27:04;5.30;;;1.70;;
35126;SDS011;21300;52.006;5.798;2022-07-23T04:29:30;1.90;;;1.30;;
35126;SDS011;21300;52.006;5.798;2022-07-23T04:31:55;1.80;;;1.25;;
35126;SDS011;21300;52.006;5.798;2022-07-23T04:34:21;4.15;;;1.50;;
35126;SDS011;21300;52.006;5.798;2022-07-23T04:36:47;4.47;;;1.75;;
35126;SDS011;21300;52.006;5.798;2022-07-23T04:39:13;3.45;;;1.83;;
35126;SDS011;21300;52.006;5.798;2022-07-23T04:41:39;2.65;;;1.88;;
35126;SDS011;21300;52.006;5.798;2022-07-23T04:44:05;2.03;;;1.55;;
35126;SDS011;21300;52.006;5.798;2022-07-23T04:46:30;3.42;;;1.70;;
35126;SDS011;21300;52.006;5.798;2022-07-23T04:48:56;3.42;;;1.75;;
35126;SDS011;21300;52.006;5.798;2022-07-23T04:51:25;5.25;;;1.65;;
35126;SDS011;21300;52.006;5.798;2022-07-23T04:53:50;3.22;;;1.83;;
35126;SDS011;21300;52.006;5.798;2022-07-23T04:56:16;3.63;;;2.42;;
35126;SDS011;21300;52.006;5.798;2022-07-23T04:58:42;2.55;;;2.25;;
35126;SDS011;21300;52.006;5.798;2022-07-23T05:01:07;5.60;;;2.08;;
35126;SDS011;21300;52.006;5.798;2022-07-23T05:03:33;8.15;;;2.55;;
35126;SDS011;21300;52.006;5.798;2022-07-23T05:05:58;3.85;;;2.00;;
35126;SDS011;21300;52.006;5.798;2022-07-23T05:08:24;3.10;;;2.30;;
35126;SDS011;21300;52.006;5.798;2022-07-23T05:10:50;4.28;;;2.45;;
35126;SDS011;21300;52.006;5.798;2022-07-23T05:13:16;2.60;;;2.00;;
35126;SDS011;21300;52.006;5.798;2022-07-23T05:15:42;4.93;;;2.70;;
35126;SDS011;21300;52.006;5.798;2022-07-23T05:18:08;4.15;;;3.08;;
35126;SDS011;21300;52.006;5.798;2022-07-23T05:20:33;4.47;;;2.90;;
35126;SDS011;21300;52.006;5.798;2022-07-23T05:22:59;4.18;;;3.17;;
35126;SDS011;21300;52.006;5.798;2022-07-23T05:25:25;5.07;;;2.85;;
35126;SDS011;21300;52.006;5.798;2022-07-23T05:27:50;3.88;;;2.92;;
35126;SDS011;21300;52.006;5.798;2022-07-23T05:30:16;4.38;;;3.33;;
35126;SDS011;21300;52.006;5.798;2022-07-23T05:32:42;3.78;;;3.13;;
35126;SDS011;21300;52.006;5.798;2022-07-23T05:35:08;4.00;;;3.20;;
35126;SDS011;21300;52.006;5.798;2022-07-23T05:37:37;6.05;;;3.35;;
35126;SDS011;21300;52.006;5.798;2022-07-23T05:40:03;4.97;;;3.33;;
35126;SDS011;21300;52.006;5.798;2022-07-23T05:42:32;6.10;;;3.70;;
35126;SDS011;21300;52.006;5.798;2022-07-23T05:45:04;7.00;;;3.35;;
35126;SDS011;21300;52.006;5.798;2022-07-23T05:47:40;7.35;;;3.83;;
35126;SDS011;21300;52.006;5.798;2022-07-23T05:50:07;4.15;;;3.72;;
35126;SDS011;21300;52.006;5.798;2022-07-23T05:52:33;6.13;;;3.92;;
35126;SDS011;21300;52.006;5.798;2022-07-23T05:54:59;9.30;;;4.47;;
35126;SDS011;21300;52.006;5.798;2022-07-23T05:57:24;9.27;;;4.07;;
35126;SDS011;21300;52.006;5.798;2022-07-23T05:59:50;3.95;;;3.55;;
35126;SDS011;21300;52.006;5.798;2022-07-23T06:02:16;7.22;;;3.85;;
35126;SDS011;21300;52.006;5.798;2022-07-23T06:04:41;6.55;;;3.67;;
35126;SDS011;21300;52.006;5.798;2022-07-23T06:07:07;7.88;;;3.70;;
35126;SDS011;21300;52.006;5.798;2022-07-23T06:09:32;6.45;;;3.63;;
35126;SDS011;21300;52.006;5.798;2022-07-23T06:11:58;8.00;;;3.58;;
35126;SDS011;21300;52.006;5.798;2022-07-23T06:14:24;5.93;;;3.50;;
35126;SDS011;21300;52.006;5.798;2022-07-23T06:16:49;8.25;;;2.92;;
35126;SDS011;21300;52.006;5.798;2022-07-23T06:19:15;7.93;;;3.20;;
35126;SDS011;21300;52.006;5.798;2022-07-23T06:21:40;4.63;;;2.97;;
35126;SDS011;21300;52.006;5.798;2022-07-23T06:24:06;6.47;;;3.00;;
35126;SDS011;21300;52.006;5.798;2022-07-23T06:26:32;5.60;;;2.67;;
35126;SDS011;21300;52.006;5.798;2022-07-23T06:28:57;5.63;;;2.40;;
35126;SDS011;21300;52.006;5.798;2022-07-23T06:31:23;4.13;;;3.15;;
35126;SDS011;21300;52.006;5.798;2022-07-23T06:33:51;5.30;;;2.17;;
35126;SDS011;21300;52.006;5.798;2022-07-23T06:36:19;4.22;;;2.50;;
35126;SDS011;21300;52.006;5.798;2022-07-23T06:38:45;6.75;;;2.05;;
35126;SDS011;21300;52.006;5.798;2022-07-23T06:41:11;3.20;;;2.05;;
35126;SDS011;21300;52.006;5.798;2022-07-23T06:43:36;4.97;;;2.40;;
35126;SDS011;21300;52.006;5.798;2022-07-23T06:46:02;3.75;;;2.25;;
35126;SDS011;21300;52.006;5.798;2022-07-23T06:48:28;8.13;;;2.00;;
35126;SDS011;21300;52.006;5.798;2022-07-23T06:50:54;8.10;;;2.00;;
35126;SDS011;21300;52.006;5.798;2022-07-23T06:53:20;3.83;;;2.35;;
35126;SDS011;21300;52.006;5.798;2022-07-23T06:55:46;8.90;;;2.10;;
35126;SDS011;21300;52.006;5.798;2022-07-23T06:58:11;6.13;;;2.10;;
35126;SDS011;21300;52.006;5.798;2022-07-23T07:00:39;4.00;;;2.38;;
35126;SDS011;21300;52.006;5.798;2022-07-23T07:03:07;3.58;;;2.10;;
35126;SDS011;21300;52.006;5.798;2022-07-23T07:05:35;3.88;;;2.38;;
35126;SDS011;21300;52.006;5.798;2022-07-23T07:08:00;6.90;;;2.20;;
35126;SDS011;21300;52.006;5.798;2022-07-23T07:10:26;5.22;;;2.85;;
35126;SDS011;21300;52.006;5.798;2022-07-23T07:12:55;4.97;;;2.60;;
35126;SDS011;21300;52.006;5.798;2022-07-23T07:15:20;4.13;;;2.78;;
35126;SDS011;21300;52.006;5.798;2022-07-23T07:17:46;4.90;;;2.22;;
35126;SDS011;21300;52.006;5.798;2022-07-23T07:20:12;5.20;;;2.25;;
35126;SDS011;21300;52.006;5.798;2022-07-23T07:22:38;4.32;;;2.33;;
35126;SDS011;21300;52.006;5.798;2022-07-23T07:25:03;5.45;;;2.13;;
35126;SDS011;21300;52.006;5.798;2022-07-23T07:27:30;4.95;;;2.33;;
35126;SDS011;21300;52.006;5.798;2022-07-23T07:29:55;4.47;;;2.03;;
35126;SDS011;21300;52.006;5.798;2022-07-23T07:32:21;4.47;;;2.25;;
35126;SDS011;21300;52.006;5.798;2022-07-23T07:34:47;5.13;;;2.67;;
35126;SDS011;21300;52.006;5.798;2022-07-23T07:37:12;3.78;;;2.35;;
35126;SDS011;21300;52.006;5.798;2022-07-23T07:39:38;5.43;;;2.35;;
35126;SDS011;21300;52.006;5.798;2022-07-23T07:42:04;3.63;;;1.90;;
35126;SDS011;21300;52.006;5.798;2022-07-23T07:44:30;2.97;;;1.73;;
35126;SDS011;21300;52.006;5.798;2022-07-23T07:46:55;4.07;;;2.13;;
35126;SDS011;21300;52.006;5.798;2022-07-23T07:49:24;6.72;;;2.00;;
35126;SDS011;21300;52.006;5.798;2022-07-23T07:51:50;4.15;;;2.20;;
35126;SDS011;21300;52.006;5.798;2022-07-23T07:54:15;3.28;;;2.10;;
35126;SDS011;21300;52.006;5.798;2022-07-23T07:56:41;5.28;;;2.20;;
35126;SDS011;21300;52.006;5.798;2022-07-23T07:59:07;4.03;;;2.40;;
35126;SDS011;21300;52.006;5.798;2022-07-23T08:01:32;4.07;;;2.22;;
35126;SDS011;21300;52.006;5.798;2022-07-23T08:03:58;4.40;;;2.22;;
35126;SDS011;21300;52.006;5.798;2022-07-23T08:06:24;4.97;;;2.40;;
35126;SDS011;21300;52.006;5.798;2022-07-23T08:08:49;4.35;;;2.10;;
35126;SDS011;21300;52.006;5.798;2022-07-23T08:11:15;6.38;;;2.40;;
35126;SDS011;21300;52.006;5.798;2022-07-23T08:13:41;5.28;;;2.50;;
35126;SDS011;21300;52.006;5.798;2022-07-23T08:16:09;6.00;;;2.63;;
35126;SDS011;21300;52.006;5.798;2022-07-23T08:18:35;5.32;;;2.60;;
35126;SDS011;21300;52.006;5.798;2022-07-23T08:21:01;3.67;;;2.35;;
35126;SDS011;21300;52.006;5.798;2022-07-23T08:23:26;3.00;;;1.67;;
35126;SDS011;21300;52.006;5.798;2022-07-23T08:25:52;3.97;;;2.20;;
35126;SDS011;21300;52.006;5.798;2022-07-23T08:28:18;4.93;;;2.53;;
35126;SDS011;21300;52.006;5.798;2022-07-23T08:30:44;5.45;;;2.55;;
35126;SDS011;21300;52.006;5.798;2022-07-23T08:33:14;4.00;;;2.13;;
35126;SDS011;21300;52.006;5.798;2022-07-23T08:35:43;2.90;;;1.92;;
35126;SDS011;21300;52.006;5.798;2022-07-23T08:38:13;5.13;;;2.20;;
35126;SDS011;21300;52.006;5.798;2022-07-23T08:40:44;4.95;;;2.13;;
35126;SDS011;21300;52.006;5.798;2022-07-23T08:43:13;3.30;;;1.98;;
35126;SDS011;21300;52.006;5.798;2022-07-23T08:45:41;3.85;;;1.92;;
35126;SDS011;21300;52.006;5.798;2022-07-23T08:48:16;5.90;;;2.05;;
35126;SDS011;21300;52.006;5.798;2022-07-23T08:50:47;4.32;;;2.30;;
35126;SDS011;21300;52.006;5.798;2022-07-23T08:53:14;4.30;;;2.05;;
35126;SDS011;21300;52.006;5.798;2022-07-23T08:55:43;2.10;;;1.70;;
35126;SDS011;21300;52.006;5.798;2022-07-23T08:58:10;3.78;;;1.95;;
35126;SDS011;21300;52.006;5.798;2022-07-23T09:00:36;5.75;;;2.10;;
35126;SDS011;21300;52.006;5.798;2022-07-23T09:03:02;4.15;;;2.20;;
35126;SDS011;21300;52.006;5.798;2022-07-23T09:05:27;4.85;;;2.45;;
35126;SDS011;21300;52.006;5.798;2022-07-23T09:08:04;6.18;;;2.58;;
35126;SDS011;21300;52.006;5.798;2022-07-23T09:18:56;6.80;;;2.65;;
35126;SDS011;21300;52.006;5.798;2022-07-23T09:21:33;9.75;;;3.13;;
35126;SDS011;21300;52.006;5.798;2022-07-23T09:24:02;5.78;;;3.33;;
35126;SDS011;21300;52.006;5.798;2022-07-23T09:26:38;4.20;;;2.78;;
35126;SDS011;21300;52.006;5.798;2022-07-23T09:29:20;5.10;;;2.83;;
35126;SDS011;21300;52.006;5.798;2022-07-23T09:31:52;5.00;;;2.70;;
35126;SDS011;21300;52.006;5.798;2022-07-23T09:36:51;5.93;;;2.28;;
35126;SDS011;21300;52.006;5.798;2022-07-23T09:39:31;5.35;;;2.55;;
35126;SDS011;21300;52.006;5.798;2022-07-23T09:41:58;4.80;;;2.70;;
35126;SDS011;21300;52.006;5.798;2022-07-23T09:44:40;4.50;;;2.60;;
35126;SDS011;21300;52.006;5.798;2022-07-23T09:47:07;5.75;;;2.38;;
35126;SDS011;21300;52.006;5.798;2022-07-23T09:52:29;5.63;;;2.67;;
35126;SDS011;21300;52.006;5.798;2022-07-23T09:55:01;4.38;;;2.53;;
35126;SDS011;21300;52.006;5.798;2022-07-23T09:57:33;5.15;;;2.22;;
35126;SDS011;21300;52.006;5.798;2022-07-23T10:00:03;5.50;;;1.90;;
35126;SDS011;21300;52.006;5.798;2022-07-23T10:02:34;4.72;;;2.25;;
35126;SDS011;21300;52.006;5.798;2022-07-23T10:05:01;3.20;;;2.00;;
35126;SDS011;21300;52.006;5.798;2022-07-23T10:07:27;4.93;;;2.17;;
35126;SDS011;21300;52.006;5.798;2022-07-23T10:09:59;3.78;;;2.42;;
35126;SDS011;21300;52.006;5.798;2022-07-23T10:12:25;4.05;;;2.42;;
35126;SDS011;21300;52.006;5.798;2022-07-23T10:14:51;4.57;;;2.40;;
35126;SDS011;21300;52.006;5.798;2022-07-23T10:17:36;7.38;;;2.42;;
35126;SDS011;21300;52.006;5.798;2022-07-23T10:20:02;3.88;;;2.42;;
35126;SDS011;21300;52.006;5.798;2022-07-23T10:22:31;3.05;;;2.30;;
35126;SDS011;21300;52.006;5.798;2022-07-23T10:28:07;5.05;;;2.97;;
35126;SDS011;21300;52.006;5.798;2022-07-23T10:34:01;4.82;;;1.98;;
35126;SDS011;21300;52.006;5.798;2022-07-23T10:39:08;3.72;;;2.20;;
35126;SDS011;21300;52.006;5.798;2022-07-23T10:41:40;5.32;;;2.47;;
35126;SDS011;21300;52.006;5.798;2022-07-23T10:44:17;5.53;;;2.50;;
35126;SDS011;21300;52.006;5.798;2022-07-23T10:49:30;5.47;;;2.55;;
35126;SDS011;21300;52.006;5.798;2022-07-23T10:54:48;3.22;;;2.30;;
35126;SDS011;21300;52.006;5.798;2022-07-23T10:57:15;4.95;;;2.80;;
35126;SDS011;21300;52.006;5.798;2022-07-23T11:02:41;3.13;;;2.03;;
35126;SDS011;21300;52.006;5.798;2022-07-23T11:05:12;3.97;;;2.28;;
35126;SDS011;21300;52.006;5.798;2022-07-23T11:08:15;4.18;;;2.58;;
35126;SDS011;21300;52.006;5.798;2022-07-23T11:37:00;5.28;;;2.47;;
35126;SDS011;21300;52.006;5.798;2022-07-23T11:39:29;6.07;;;2.53;;
35126;SDS011;21300;52.006;5.798;2022-07-23T11:41:57;4.75;;;2.60;;
35126;SDS011;21300;52.006;5.798;2022-07-23T11:44:27;6.53;;;2.05;;
35126;SDS011;21300;52.006;5.798;2022-07-23T11:52:24;4.70;;;2.40;;
35126;SDS011;21300;52.006;5.798;2022-07-23T11:57:16;4.90;;;2.45;;
35126;SDS011;21300;52.006;5.798;2022-07-23T11:59:43;2.83;;;2.10;;
35126;SDS011;21300;52.006;5.798;2022-07-23T12:02:10;4.25;;;2.22;;
35126;SDS011;21300;52.006;5.798;2022-07-23T12:04:37;4.57;;;2.35;;
35126;SDS011;21300;52.006;5.798;2022-07-23T12:10:03;4.55;;;2.80;;
35126;SDS011;21300;52.006;5.798;2022-07-23T12:12:51;3.80;;;2.58;;
35126;SDS011;21300;52.006;5.798;2022-07-23T12:15:18;5.15;;;2.17;;
35126;SDS011;21300;52.006;5.798;2022-07-23T12:17:50;4.38;;;2.03;;
35126;SDS011;21300;52.006;5.798;2022-07-23T12:20:19;6.35;;;2.42;;
35126;SDS011;21300;52.006;5.798;2022-07-23T12:22:51;4.07;;;2.47;;
35126;SDS011;21300;52.006;5.798;2022-07-23T12:25:19;3.75;;;2.17;;
35126;SDS011;21300;52.006;5.798;2022-07-23T12:27:56;5.55;;;2.42;;
35126;SDS011;21300;52.006;5.798;2022-07-23T12:30:25;5.32;;;2.40;;
35126;SDS011;21300;52.006;5.798;2022-07-23T12:32:54;4.35;;;2.40;;
35126;SDS011;21300;52.006;5.798;2022-07-23T12:35:22;3.15;;;2.08;;
35126;SDS011;21300;52.006;5.798;2022-07-23T12:37:59;5.07;;;2.22;;
35126;SDS011;21300;52.006;5.798;2022-07-23T12:40:30;4.20;;;2.10;;
35126;SDS011;21300;52.006;5.798;2022-07-23T12:43:08;2.83;;;1.90;;
35126;SDS011;21300;52.006;5.798;2022-07-23T12:45:46;3.85;;;2.33;;
35126;SDS011;21300;52.006;5.798;2022-07-23T12:48:16;5.88;;;2.20;;
35126;SDS011;21300;52.006;5.798;2022-07-23T12:50:59;8.85;;;2.67;;
35126;SDS011;21300;52.006;5.798;2022-07-23T12:56:05;10.70;;;2.80;;
35126;SDS011;21300;52.006;5.798;2022-07-23T12:58:41;4.10;;;2.40;;
35126;SDS011;21300;52.006;5.798;2022-07-23T13:06:33;4.07;;;2.28;;
35126;SDS011;21300;52.006;5.798;2022-07-23T13:09:01;3.58;;;2.03;;
35126;SDS011;21300;52.006;5.798;2022-07-23T13:11:28;5.80;;;2.30;;
35126;SDS011;21300;52.006;5.798;2022-07-23T13:13:54;4.78;;;2.53;;
35126;SDS011;21300;52.006;5.798;2022-07-23T13:16:19;4.38;;;2.72;;
35126;SDS011;21300;52.006;5.798;2022-07-23T13:18:45;5.45;;;2.33;;
35126;SDS011;21300;52.006;5.798;2022-07-23T13:21:11;3.42;;;2.60;;
35126;SDS011;21300;52.006;5.798;2022-07-23T13:23:36;2.95;;;2.20;;
35126;SDS011;21300;52.006;5.798;2022-07-23T13:26:02;2.78;;;2.10;;
35126;SDS011;21300;52.006;5.798;2022-07-23T13:28:29;4.32;;;2.20;;
35126;SDS011;21300;52.006;5.798;2022-07-23T13:30:55;3.17;;;2.00;;
35126;SDS011;21300;52.006;5.798;2022-07-23T13:33:22;2.63;;;2.10;;
35126;SDS011;21300;52.006;5.798;2022-07-23T13:35:49;9.15;;;2.75;;
35126;SDS011;21300;52.006;5.798;2022-07-23T13:38:16;5.53;;;2.25;;
35126;SDS011;21300;52.006;5.798;2022-07-23T13:40:43;3.38;;;2.08;;
35126;SDS011;21300;52.006;5.798;2022-07-23T13:43:11;3.33;;;2.17;;
35126;SDS011;21300;52.006;5.798;2022-07-23T13:45:39;4.63;;;2.47;;
35126;SDS011;21300;52.006;5.798;2022-07-23T13:48:05;8.35;;;2.30;;
35126;SDS011;21300;52.006;5.798;2022-07-23T13:50:32;5.57;;;2.20;;
35126;SDS011;21300;52.006;5.798;2022-07-23T13:53:02;4.43;;;2.30;;
35126;SDS011;21300;52.006;5.798;2022-07-23T13:55:36;2.47;;;1.98;;
35126;SDS011;21300;52.006;5.798;2022-07-23T13:58:04;3.80;;;2.28;;
35126;SDS011;21300;52.006;5.798;2022-07-23T14:00:31;4.63;;;2.20;;
35126;SDS011;21300;52.006;5.798;2022-07-23T14:02:59;7.32;;;2.60;;
35126;SDS011;21300;52.006;5.798;2022-07-23T14:05:26;3.05;;;2.25;;
35126;SDS011;21300;52.006;5.798;2022-07-23T14:07:52;4.07;;;2.20;;
35126;SDS011;21300;52.006;5.798;2022-07-23T14:10:19;4.47;;;2.17;;
35126;SDS011;21300;52.006;5.798;2022-07-23T14:12:46;5.22;;;2.17;;
35126;SDS011;21300;52.006;5.798;2022-07-23T14:15:13;2.83;;;2.38;;
35126;SDS011;21300;52.006;5.798;2022-07-23T14:17:41;3.50;;;2.20;;
35126;SDS011;21300;52.006;5.798;2022-07-23T14:20:09;4.35;;;2.45;;
35126;SDS011;21300;52.006;5.798;2022-07-23T14:22:36;6.47;;;2.80;;
35126;SDS011;21300;52.006;5.798;2022-07-23T14:25:03;2.45;;;2.08;;
35126;SDS011;21300;52.006;5.798;2022-07-23T14:27:30;5.22;;;3.00;;
35126;SDS011;21300;52.006;5.798;2022-07-23T14:29:56;3.95;;;2.20;;
35126;SDS011;21300;52.006;5.798;2022-07-23T14:32:22;3.70;;;2.38;;
35126;SDS011;21300;52.006;5.798;2022-07-23T14:34:50;6.22;;;2.80;;
35126;SDS011;21300;52.006;5.798;2022-07-23T14:37:18;3.45;;;2.10;;
35126;SDS011;21300;52.006;5.798;2022-07-23T14:39:44;4.55;;;2.30;;
35126;SDS011;21300;52.006;5.798;2022-07-23T14:42:10;4.20;;;2.30;;
35126;SDS011;21300;52.006;5.798;2022-07-23T14:44:36;4.15;;;2.30;;
35126;SDS011;21300;52.006;5.798;2022-07-23T14:47:03;3.20;;;2.50;;
35126;SDS011;21300;52.006;5.798;2022-07-23T14:49:31;4.65;;;2.85;;
35126;SDS011;21300;52.006;5.798;2022-07-23T14:51:57;3.45;;;2.03;;
35126;SDS011;21300;52.006;5.798;2022-07-23T14:54:23;3.28;;;2.30;;
35126;SDS011;21300;52.006;5.798;2022-07-23T14:56:51;4.97;;;1.92;;
35126;SDS011;21300;52.006;5.798;2022-07-23T14:59:20;2.80;;;2.33;;
35126;SDS011;21300;52.006;5.798;2022-07-23T15:01:46;4.35;;;2.30;;
35126;SDS011;21300;52.006;5.798;2022-07-23T15:04:12;3.85;;;2.30;;
35126;SDS011;21300;52.006;5.798;2022-07-23T15:06:38;4.78;;;2.35;;
35126;SDS011;21300;52.006;5.798;2022-07-23T15:09:04;4.30;;;2.25;;
35126;SDS011;21300;52.006;5.798;2022-07-23T15:14:14;2.88;;;2.35;;
35126;SDS011;21300;52.006;5.798;2022-07-23T15:16:40;5.68;;;2.53;;
35126;SDS011;21300;52.006;5.798;2022-07-23T15:19:06;3.05;;;2.30;;
35126;SDS011;21300;52.006;5.798;2022-07-23T15:21:31;2.75;;;2.00;;
35126;SDS011;21300;52.006;5.798;2022-07-23T15:23:57;4.40;;;2.05;;
35126;SDS011;21300;52.006;5.798;2022-07-23T15:26:26;4.40;;;2.60;;
35126;SDS011;21300;52.006;5.798;2022-07-23T15:28:53;4.05;;;2.38;;
35126;SDS011;21300;52.006;5.798;2022-07-23T15:31:22;3.58;;;2.20;;
35126;SDS011;21300;52.006;5.798;2022-07-23T15:33:48;4.72;;;2.30;;
35126;SDS011;21300;52.006;5.798;2022-07-23T15:36:13;5.13;;;2.08;;
35126;SDS011;21300;52.006;5.798;2022-07-23T15:38:41;4.78;;;2.20;;
35126;SDS011;21300;52.006;5.798;2022-07-23T15:41:07;4.82;;;2.45;;
35126;SDS011;21300;52.006;5.798;2022-07-23T15:43:32;4.97;;;2.40;;
35126;SDS011;21300;52.006;5.798;2022-07-23T15:45:58;2.95;;;1.73;;
35126;SDS011;21300;52.006;5.798;2022-07-23T15:48:24;3.92;;;2.10;;
35126;SDS011;21300;52.006;5.798;2022-07-23T15:50:50;4.40;;;2.47;;
35126;SDS011;21300;52.006;5.798;2022-07-23T15:53:15;4.35;;;1.90;;
35126;SDS011;21300;52.006;5.798;2022-07-23T15:55:42;3.22;;;2.40;;
35126;SDS011;21300;52.006;5.798;2022-07-23T15:58:10;4.60;;;2.60;;
35126;SDS011;21300;52.006;5.798;2022-07-23T16:03:21;5.23;;;2.23;;
35126;SDS011;21300;52.006;5.798;2022-07-23T16:05:46;4.43;;;1.98;;
35126;SDS011;21300;52.006;5.798;2022-07-23T16:08:12;2.03;;;1.83;;
35126;SDS011;21300;52.006;5.798;2022-07-23T16:10:38;6.30;;;2.30;;